sensor_id;sensor_type;location;lat;lon;timestamp;temperature;humidity
4183;DHT22;2105;52.300;9.182;2023-02-28T00:00:18;0.50;1.00
4183;DHT22;2105;52.300;9.182;2023-02-28T00:02:47;0.50;1.00
4183;DHT22;2105;52.300;9.182;2023-02-28T00:05:15;0.50;1.00
4183;DHT22;2105;52.300;9.182;2023-02-28T00:07:44;0.40;99.90
4183;DHT22;2105;52.300;9.182;2023-02-28T00:10:13;0.40;1.00
4183;DHT22;2105;52.300;9.182;2023-02-28T00:12:41;0.40;1.00
4183;DHT22;2105;52.300;9.182;2023-02-28T00:15:09;0.40;99.90
4183;DHT22;2105;52.300;9.182;2023-02-28T00:17:37;0.40;99.90
4183;DHT22;2105;52.300;9.182;2023-02-28T00:20:06;0.30;91.70
4183;DHT22;2105;52.300;9.182;2023-02-28T00:22:34;0.30;99.90
4183;DHT22;2105;52.300;9.182;2023-02-28T00:25:02;0.40;1.00
4183;DHT22;2105;52.300;9.182;2023-02-28T00:27:30;0.40;1.00
4183;DHT22;2105;52.300;9.182;2023-02-28T00:29:56;0.40;99.90
4183;DHT22;2105;52.300;9.182;2023-02-28T00:32:23;0.30;43.00
4183;DHT22;2105;52.300;9.182;2023-02-28T00:34:50;0.30;1.00
4183;DHT22;2105;52.300;9.182;2023-02-28T00:37:17;0.30;99.90
4183;DHT22;2105;52.300;9.182;2023-02-28T00:39:43;0.30;1.00
4183;DHT22;2105;52.300;9.182;2023-02-28T00:42:12;0.20;1.00
4183;DHT22;2105;52.300;9.182;2023-02-28T00:44:39;0.20;1.00
4183;DHT22;2105;52.300;9.182;2023-02-28T00:47:05;0.20;99.90
4183;DHT22;2105;52.300;9.182;2023-02-28T00:49:32;0.20;1.00
4183;DHT22;2105;52.300;9.182;2023-02-28T00:51:59;0.10;99.90
4183;DHT22;2105;52.300;9.182;2023-02-28T00:54:26;0.00;46.40
4183;DHT22;2105;52.300;9.182;2023-02-28T00:56:53;-0.20;99.90
4183;DHT22;2105;52.300;9.182;2023-02-28T00:59:21;-0.20;99.90
4183;DHT22;2105;52.300;9.182;2023-02-28T01:01:48;-0.30;99.90
4183;DHT22;2105;52.300;9.182;2023-02-28T01:04:15;-0.30;1.00
4183;DHT22;2105;52.300;9.182;2023-02-28T01:06:42;-0.30;1.00
4183;DHT22;2105;52.300;9.182;2023-02-28T01:09:09;-0.20;99.90
4183;DHT22;2105;52.300;9.182;2023-02-28T01:11:37;-0.10;1.00
4183;DHT22;2105;52.300;9.182;2023-02-28T01:14:04;-0.10;99.90
4183;DHT22;2105;52.300;9.182;2023-02-28T01:16:33;-0.10;1.00
4183;DHT22;2105;52.300;9.182;2023-02-28T01:18:59;-0.20;99.90
4183;DHT22;2105;52.300;9.182;2023-02-28T01:21:26;-0.30;99.90
4183;DHT22;2105;52.300;9.182;2023-02-28T01:23:56;-0.40;1.00
4183;DHT22;2105;52.300;9.182;2023-02-28T01:26:24;-0.50;99.90
4183;DHT22;2105;52.300;9.182;2023-02-28T01:28:52;-0.50;1.00
4183;DHT22;2105;52.300;9.182;2023-02-28T01:31:20;-0.60;99.90
4183;DHT22;2105;52.300;9.182;2023-02-28T01:33:49;-0.70;1.00
4183;DHT22;2105;52.300;9.182;2023-02-28T01:36:17;-0.60;1.00
4183;DHT22;2105;52.300;9.182;2023-02-28T01:38:45;-0.70;1.00
4183;DHT22;2105;52.300;9.182;2023-02-28T01:41:17;-0.70;99.90
4183;DHT22;2105;52.300;9.182;2023-02-28T01:43:59;-0.50;1.00
4183;DHT22;2105;52.300;9.182;2023-02-28T01:46:28;-0.70;1.00
4183;DHT22;2105;52.300;9.182;2023-02-28T01:49:05;-0.70;1.00
4183;DHT22;2105;52.300;9.182;2023-02-28T01:51:37;-0.70;1.00
4183;DHT22;2105;52.300;9.182;2023-02-28T01:54:08;-0.70;1.00
4183;DHT22;2105;52.300;9.182;2023-02-28T01:56:42;-0.70;1.00
4183;DHT22;2105;52.300;9.182;2023-02-28T01:59:12;-0.80;99.90
4183;DHT22;2105;52.300;9.182;2023-02-28T02:01:40;-0.90;99.90
4183;DHT22;2105;52.300;9.182;2023-02-28T02:04:09;-1.00;1.00
4183;DHT22;2105;52.300;9.182;2023-02-28T02:06:39;-0.90;1.00
4183;DHT22;2105;52.300;9.182;2023-02-28T02:09:06;-0.90;1.00
4183;DHT22;2105;52.300;9.182;2023-02-28T02:11:34;-0.90;1.00
4183;DHT22;2105;52.300;9.182;2023-02-28T02:17:10;-0.90;1.00
4183;DHT22;2105;52.300;9.182;2023-02-28T02:25:43;-1.10;99.90
4183;DHT22;2105;52.300;9.182;2023-02-28T02:28:46;-1.30;99.90
4183;DHT22;2105;52.300;9.182;2023-02-28T02:31:33;-1.50;99.90
4183;DHT22;2105;52.300;9.182;2023-02-28T02:34:33;-1.60;99.90
4183;DHT22;2105;52.300;9.182;2023-02-28T02:37:21;-1.60;1.00
4183;DHT22;2105;52.300;9.182;2023-02-28T02:40:00;-1.60;1.00
4183;DHT22;2105;52.300;9.182;2023-02-28T02:42:34;-1.60;39.00
4183;DHT22;2105;52.300;9.182;2023-02-28T02:45:08;-1.60;99.90
4183;DHT22;2105;52.300;9.182;2023-02-28T02:47:36;-1.50;1.00
4183;DHT22;2105;52.300;9.182;2023-02-28T02:50:08;-1.60;1.00
4183;DHT22;2105;52.300;9.182;2023-02-28T02:52:40;-1.60;32.10
4183;DHT22;2105;52.300;9.182;2023-02-28T02:55:11;-1.60;99.90
4183;DHT22;2105;52.300;9.182;2023-02-28T02:57:45;-1.70;99.90
4183;DHT22;2105;52.300;9.182;2023-02-28T03:00:16;-1.70;99.90
4183;DHT22;2105;52.300;9.182;2023-02-28T03:02:45;-1.80;1.00
4183;DHT22;2105;52.300;9.182;2023-02-28T03:05:19;-1.90;1.00
4183;DHT22;2105;52.300;9.182;2023-02-28T03:08:22;-2.00;99.90
4183;DHT22;2105;52.300;9.182;2023-02-28T03:10:50;-2.10;99.90
4183;DHT22;2105;52.300;9.182;2023-02-28T03:16:28;-2.00;1.00
4183;DHT22;2105;52.300;9.182;2023-02-28T03:19:07;-1.90;74.10
4183;DHT22;2105;52.300;9.182;2023-02-28T03:21:42;-1.80;99.90
4183;DHT22;2105;52.300;9.182;2023-02-28T03:24:13;-1.90;1.00
4183;DHT22;2105;52.300;9.182;2023-02-28T03:26:45;-1.90;99.90
4183;DHT22;2105;52.300;9.182;2023-02-28T03:29:21;-2.00;1.00
4183;DHT22;2105;52.300;9.182;2023-02-28T03:31:54;-2.10;99.90
4183;DHT22;2105;52.300;9.182;2023-02-28T03:34:29;-2.10;1.00
4183;DHT22;2105;52.300;9.182;2023-02-28T03:37:01;-2.10;99.90
4183;DHT22;2105;52.300;9.182;2023-02-28T03:39:34;-2.10;1.00
4183;DHT22;2105;52.300;9.182;2023-02-28T03:42:05;-2.00;1.00
4183;DHT22;2105;52.300;9.182;2023-02-28T03:44:36;-1.90;1.00
4183;DHT22;2105;52.300;9.182;2023-02-28T03:47:08;-2.00;99.90
4183;DHT22;2105;52.300;9.182;2023-02-28T03:49:40;-2.10;99.90
4183;DHT22;2105;52.300;9.182;2023-02-28T03:52:11;-2.10;99.90
4183;DHT22;2105;52.300;9.182;2023-02-28T03:54:41;-2.00;1.00
4183;DHT22;2105;52.300;9.182;2023-02-28T03:57:15;-2.10;99.90
4183;DHT22;2105;52.300;9.182;2023-02-28T03:59:47;-2.10;99.90
4183;DHT22;2105;52.300;9.182;2023-02-28T04:02:15;-2.10;99.90
4183;DHT22;2105;52.300;9.182;2023-02-28T04:04:42;-2.20;1.00
4183;DHT22;2105;52.300;9.182;2023-02-28T04:07:15;-2.30;1.00
4183;DHT22;2105;52.300;9.182;2023-02-28T04:09:42;-2.40;1.00
4183;DHT22;2105;52.300;9.182;2023-02-28T04:12:09;-2.40;1.00
4183;DHT22;2105;52.300;9.182;2023-02-28T04:14:36;-2.40;1.00
4183;DHT22;2105;52.300;9.182;2023-02-28T04:17:03;-2.50;1.00
4183;DHT22;2105;52.300;9.182;2023-02-28T04:19:30;-2.40;99.90
4183;DHT22;2105;52.300;9.182;2023-02-28T04:21:57;-2.40;99.90
4183;DHT22;2105;52.300;9.182;2023-02-28T04:24:26;-2.50;99.90
4183;DHT22;2105;52.300;9.182;2023-02-28T04:26:55;-2.50;99.90
4183;DHT22;2105;52.300;9.182;2023-02-28T04:29:23;-2.50;99.90
4183;DHT22;2105;52.300;9.182;2023-02-28T04:31:50;-2.40;1.00
4183;DHT22;2105;52.300;9.182;2023-02-28T04:34:18;-2.30;99.90
4183;DHT22;2105;52.300;9.182;2023-02-28T04:36:46;-2.30;1.00
4183;DHT22;2105;52.300;9.182;2023-02-28T04:39:14;-2.30;1.00
4183;DHT22;2105;52.300;9.182;2023-02-28T04:41:44;-2.30;1.00
4183;DHT22;2105;52.300;9.182;2023-02-28T04:44:11;-2.30;1.00
4183;DHT22;2105;52.300;9.182;2023-02-28T04:46:38;-2.20;1.00
4183;DHT22;2105;52.300;9.182;2023-02-28T04:49:05;-2.30;1.00
4183;DHT22;2105;52.300;9.182;2023-02-28T04:51:31;-2.40;99.90
4183;DHT22;2105;52.300;9.182;2023-02-28T04:53:58;-2.30;99.90
4183;DHT22;2105;52.300;9.182;2023-02-28T04:56:25;-2.40;99.90
4183;DHT22;2105;52.300;9.182;2023-02-28T04:58:53;-2.30;99.90
4183;DHT22;2105;52.300;9.182;2023-02-28T05:01:23;-2.30;68.90
4183;DHT22;2105;52.300;9.182;2023-02-28T05:03:51;-2.30;1.00
4183;DHT22;2105;52.300;9.182;2023-02-28T05:06:19;-2.40;1.00
4183;DHT22;2105;52.300;9.182;2023-02-28T05:08:47;-2.40;1.00
4183;DHT22;2105;52.300;9.182;2023-02-28T05:11:16;-2.50;1.00
4183;DHT22;2105;52.300;9.182;2023-02-28T05:13:44;-2.50;1.00
4183;DHT22;2105;52.300;9.182;2023-02-28T05:16:12;-2.50;1.00
4183;DHT22;2105;52.300;9.182;2023-02-28T05:18:39;-2.50;1.00
4183;DHT22;2105;52.300;9.182;2023-02-28T05:21:23;-2.50;99.90
4183;DHT22;2105;52.300;9.182;2023-02-28T05:23:51;-2.60;99.90
4183;DHT22;2105;52.300;9.182;2023-02-28T05:26:18;-2.70;99.90
4183;DHT22;2105;52.300;9.182;2023-02-28T05:28:45;-2.70;99.90
4183;DHT22;2105;52.300;9.182;2023-02-28T05:31:14;-2.70;99.90
4183;DHT22;2105;52.300;9.182;2023-02-28T05:33:40;-2.70;1.00
4183;DHT22;2105;52.300;9.182;2023-02-28T05:36:08;-2.70;1.00
4183;DHT22;2105;52.300;9.182;2023-02-28T05:38:34;-2.70;1.00
4183;DHT22;2105;52.300;9.182;2023-02-28T05:41:05;-2.60;34.60
4183;DHT22;2105;52.300;9.182;2023-02-28T05:43:32;-2.60;1.00
4183;DHT22;2105;52.300;9.182;2023-02-28T05:45:58;-2.60;1.00
4183;DHT22;2105;52.300;9.182;2023-02-28T05:48:26;-2.60;1.00
4183;DHT22;2105;52.300;9.182;2023-02-28T05:50:53;-2.60;99.90
4183;DHT22;2105;52.300;9.182;2023-02-28T05:53:20;-2.60;99.90
4183;DHT22;2105;52.300;9.182;2023-02-28T05:55:47;-2.60;99.90
4183;DHT22;2105;52.300;9.182;2023-02-28T05:58:14;-2.60;99.90
4183;DHT22;2105;52.300;9.182;2023-02-28T06:00:41;-2.50;1.00
4183;DHT22;2105;52.300;9.182;2023-02-28T06:03:07;-2.50;99.90
4183;DHT22;2105;52.300;9.182;2023-02-28T06:05:35;-2.50;85.10
4183;DHT22;2105;52.300;9.182;2023-02-28T06:08:04;-2.50;1.00
4183;DHT22;2105;52.300;9.182;2023-02-28T06:10:32;-2.50;1.00
4183;DHT22;2105;52.300;9.182;2023-02-28T06:12:59;-2.50;99.90
4183;DHT22;2105;52.300;9.182;2023-02-28T06:15:28;-2.50;14.20
4183;DHT22;2105;52.300;9.182;2023-02-28T06:17:55;-2.60;1.00
4183;DHT22;2105;52.300;9.182;2023-02-28T06:20:23;-2.60;1.00
4183;DHT22;2105;52.300;9.182;2023-02-28T06:22:52;-2.60;99.90
4183;DHT22;2105;52.300;9.182;2023-02-28T06:25:21;-2.60;99.90
4183;DHT22;2105;52.300;9.182;2023-02-28T06:27:48;-2.40;99.90
4183;DHT22;2105;52.300;9.182;2023-02-28T06:30:16;-2.40;99.90
4183;DHT22;2105;52.300;9.182;2023-02-28T06:32:43;-2.40;1.00
4183;DHT22;2105;52.300;9.182;2023-02-28T06:35:10;-2.30;1.00
4183;DHT22;2105;52.300;9.182;2023-02-28T06:37:36;-2.20;1.00
4183;DHT22;2105;52.300;9.182;2023-02-28T06:40:06;-2.10;99.90
4183;DHT22;2105;52.300;9.182;2023-02-28T06:42:33;-1.90;99.90
4183;DHT22;2105;52.300;9.182;2023-02-28T06:44:59;-1.70;1.00
4183;DHT22;2105;52.300;9.182;2023-02-28T06:47:30;-1.50;1.00
4183;DHT22;2105;52.300;9.182;2023-02-28T06:49:57;-1.20;1.00
4183;DHT22;2105;52.300;9.182;2023-02-28T06:52:23;-1.10;1.00
4183;DHT22;2105;52.300;9.182;2023-02-28T06:54:50;-1.10;1.00
4183;DHT22;2105;52.300;9.182;2023-02-28T06:57:27;-1.30;99.90
4183;DHT22;2105;52.300;9.182;2023-02-28T06:59:56;-1.30;99.90
4183;DHT22;2105;52.300;9.182;2023-02-28T07:02:23;-1.20;1.00
4183;DHT22;2105;52.300;9.182;2023-02-28T07:04:50;-0.90;99.90
4183;DHT22;2105;52.300;9.182;2023-02-28T07:07:17;-0.30;99.90
4183;DHT22;2105;52.300;9.182;2023-02-28T07:09:44;0.20;1.00
4183;DHT22;2105;52.300;9.182;2023-02-28T07:12:11;0.40;99.90
4183;DHT22;2105;52.300;9.182;2023-02-28T07:14:39;0.40;1.00
4183;DHT22;2105;52.300;9.182;2023-02-28T07:17:07;0.70;1.00
4183;DHT22;2105;52.300;9.182;2023-02-28T07:19:35;1.30;1.00
4183;DHT22;2105;52.300;9.182;2023-02-28T07:22:02;1.80;99.90
4183;DHT22;2105;52.300;9.182;2023-02-28T07:24:29;2.00;1.00
4183;DHT22;2105;52.300;9.182;2023-02-28T07:26:55;2.50;1.00
4183;DHT22;2105;52.300;9.182;2023-02-28T07:29:25;3.00;99.90
4183;DHT22;2105;52.300;9.182;2023-02-28T07:31:53;3.20;99.90
4183;DHT22;2105;52.300;9.182;2023-02-28T07:34:20;3.60;99.90
4183;DHT22;2105;52.300;9.182;2023-02-28T07:36:46;3.40;99.90
4183;DHT22;2105;52.300;9.182;2023-02-28T07:39:13;3.00;99.90
4183;DHT22;2105;52.300;9.182;2023-02-28T07:41:40;3.30;99.90
4183;DHT22;2105;52.300;9.182;2023-02-28T07:44:09;4.10;99.90
4183;DHT22;2105;52.300;9.182;2023-02-28T07:46:36;4.90;99.90
4183;DHT22;2105;52.300;9.182;2023-02-28T07:49:05;5.50;99.90
4183;DHT22;2105;52.300;9.182;2023-02-28T07:51:32;6.30;97.40
4183;DHT22;2105;52.300;9.182;2023-02-28T07:53:59;6.90;10.60
4183;DHT22;2105;52.300;9.182;2023-02-28T07:56:26;7.70;1.00
4183;DHT22;2105;52.300;9.182;2023-02-28T07:58:52;8.20;1.00
4183;DHT22;2105;52.300;9.182;2023-02-28T08:01:19;7.90;1.00
4183;DHT22;2105;52.300;9.182;2023-02-28T08:03:46;7.50;1.00
4183;DHT22;2105;52.300;9.182;2023-02-28T08:06:18;7.00;1.00
4183;DHT22;2105;52.300;9.182;2023-02-28T08:08:45;7.20;1.00
4183;DHT22;2105;52.300;9.182;2023-02-28T08:11:12;7.50;1.00
4183;DHT22;2105;52.300;9.182;2023-02-28T08:13:39;8.10;1.00
4183;DHT22;2105;52.300;9.182;2023-02-28T08:16:07;8.90;1.00
4183;DHT22;2105;52.300;9.182;2023-02-28T08:18:34;9.30;1.00
4183;DHT22;2105;52.300;9.182;2023-02-28T08:21:13;9.70;1.00
4183;DHT22;2105;52.300;9.182;2023-02-28T08:23:43;10.20;1.00
4183;DHT22;2105;52.300;9.182;2023-02-28T08:26:10;10.70;1.00
4183;DHT22;2105;52.300;9.182;2023-02-28T08:28:37;10.70;1.00
4183;DHT22;2105;52.300;9.182;2023-02-28T08:31:08;10.30;1.00
4183;DHT22;2105;52.300;9.182;2023-02-28T08:33:35;10.00;1.00
4183;DHT22;2105;52.300;9.182;2023-02-28T08:36:03;9.70;1.00
4183;DHT22;2105;52.300;9.182;2023-02-28T08:38:29;9.60;1.00
4183;DHT22;2105;52.300;9.182;2023-02-28T08:41:04;9.50;1.00
4183;DHT22;2105;52.300;9.182;2023-02-28T08:43:32;9.50;1.00
4183;DHT22;2105;52.300;9.182;2023-02-28T08:45:59;9.20;1.00
4183;DHT22;2105;52.300;9.182;2023-02-28T08:48:28;8.60;1.00
4183;DHT22;2105;52.300;9.182;2023-02-28T08:50:56;8.10;1.00
4183;DHT22;2105;52.300;9.182;2023-02-28T08:53:23;7.60;1.00
4183;DHT22;2105;52.300;9.182;2023-02-28T08:55:56;7.30;1.00
4183;DHT22;2105;52.300;9.182;2023-02-28T08:58:25;7.10;1.00
4183;DHT22;2105;52.300;9.182;2023-02-28T09:00:53;6.90;1.00
4183;DHT22;2105;52.300;9.182;2023-02-28T09:03:20;6.70;1.00
4183;DHT22;2105;52.300;9.182;2023-02-28T09:05:54;6.50;1.00
4183;DHT22;2105;52.300;9.182;2023-02-28T09:08:24;6.50;1.00
4183;DHT22;2105;52.300;9.182;2023-02-28T09:14:30;6.50;1.00
4183;DHT22;2105;52.300;9.182;2023-02-28T09:17:03;6.40;1.00
4183;DHT22;2105;52.300;9.182;2023-02-28T09:19:40;6.40;1.00
4183;DHT22;2105;52.300;9.182;2023-02-28T09:22:35;6.30;1.00
4183;DHT22;2105;52.300;9.182;2023-02-28T09:25:02;6.50;1.00
4183;DHT22;2105;52.300;9.182;2023-02-28T09:28:39;6.60;1.00
4183;DHT22;2105;52.300;9.182;2023-02-28T09:30:48;6.80;1.00
4183;DHT22;2105;52.300;9.182;2023-02-28T09:33:25;6.70;1.00
4183;DHT22;2105;52.300;9.182;2023-02-28T09:36:01;6.50;1.00
4183;DHT22;2105;52.300;9.182;2023-02-28T09:38:30;6.50;1.00
4183;DHT22;2105;52.300;9.182;2023-02-28T09:41:00;6.50;1.00
4183;DHT22;2105;52.300;9.182;2023-02-28T09:43:30;6.50;1.00
4183;DHT22;2105;52.300;9.182;2023-02-28T09:46:05;6.60;1.00
4183;DHT22;2105;52.300;9.182;2023-02-28T09:48:40;6.80;1.00
4183;DHT22;2105;52.300;9.182;2023-02-28T09:51:15;6.80;1.00
4183;DHT22;2105;52.300;9.182;2023-02-28T09:53:47;7.00;1.00
4183;DHT22;2105;52.300;9.182;2023-02-28T09:56:18;7.20;1.00
4183;DHT22;2105;52.300;9.182;2023-02-28T09:58:53;7.30;1.00
4183;DHT22;2105;52.300;9.182;2023-02-28T10:01:27;7.30;1.00
4183;DHT22;2105;52.300;9.182;2023-02-28T10:03:57;7.20;1.00
4183;DHT22;2105;52.300;9.182;2023-02-28T10:06:28;7.20;1.00
4183;DHT22;2105;52.300;9.182;2023-02-28T10:09:01;7.30;1.00
4183;DHT22;2105;52.300;9.182;2023-02-28T10:11:29;7.50;1.00
4183;DHT22;2105;52.300;9.182;2023-02-28T10:14:02;7.60;1.00
4183;DHT22;2105;52.300;9.182;2023-02-28T10:16:36;7.50;1.00
4183;DHT22;2105;52.300;9.182;2023-02-28T10:19:09;7.70;1.00
4183;DHT22;2105;52.300;9.182;2023-02-28T10:21:41;7.80;1.00
4183;DHT22;2105;52.300;9.182;2023-02-28T10:24:26;7.80;1.00
4183;DHT22;2105;52.300;9.182;2023-02-28T10:27:00;7.80;1.00
4183;DHT22;2105;52.300;9.182;2023-02-28T10:29:31;7.90;1.00
4183;DHT22;2105;52.300;9.182;2023-02-28T10:32:15;7.90;1.00
4183;DHT22;2105;52.300;9.182;2023-02-28T10:34:43;7.80;1.00
4183;DHT22;2105;52.300;9.182;2023-02-28T10:37:10;7.70;1.00
4183;DHT22;2105;52.300;9.182;2023-02-28T10:39:39;7.80;1.00
4183;DHT22;2105;52.300;9.182;2023-02-28T10:42:20;7.60;1.00
4183;DHT22;2105;52.300;9.182;2023-02-28T10:44:47;7.70;1.00
4183;DHT22;2105;52.300;9.182;2023-02-28T10:47:17;7.90;1.00
4183;DHT22;2105;52.300;9.182;2023-02-28T10:49:48;8.20;1.00
4183;DHT22;2105;52.300;9.182;2023-02-28T10:52:33;8.20;1.00
4183;DHT22;2105;52.300;9.182;2023-02-28T10:55:15;8.00;1.00
4183;DHT22;2105;52.300;9.182;2023-02-28T10:57:42;7.70;1.00
4183;DHT22;2105;52.300;9.182;2023-02-28T11:00:15;7.50;1.00
4183;DHT22;2105;52.300;9.182;2023-02-28T11:02:43;7.40;1.00
4183;DHT22;2105;52.300;9.182;2023-02-28T11:05:26;7.50;1.00
4183;DHT22;2105;52.300;9.182;2023-02-28T11:07:54;7.80;1.00
4183;DHT22;2105;52.300;9.182;2023-02-28T11:10:25;7.90;1.00
4183;DHT22;2105;52.300;9.182;2023-02-28T11:12:55;8.10;1.00
4183;DHT22;2105;52.300;9.182;2023-02-28T11:15:24;8.30;1.00
4183;DHT22;2105;52.300;9.182;2023-02-28T11:17:57;8.20;1.00
4183;DHT22;2105;52.300;9.182;2023-02-28T11:20:28;8.20;1.00
4183;DHT22;2105;52.300;9.182;2023-02-28T11:22:55;8.10;1.00
4183;DHT22;2105;52.300;9.182;2023-02-28T11:25:24;7.90;1.00
4183;DHT22;2105;52.300;9.182;2023-02-28T11:27:52;7.50;1.00
4183;DHT22;2105;52.300;9.182;2023-02-28T11:30:34;7.30;1.00
4183;DHT22;2105;52.300;9.182;2023-02-28T11:33:21;7.50;1.00
4183;DHT22;2105;52.300;9.182;2023-02-28T11:35:49;7.80;1.00
4183;DHT22;2105;52.300;9.182;2023-02-28T11:38:16;7.90;1.00
4183;DHT22;2105;52.300;9.182;2023-02-28T11:40:48;8.30;1.00
4183;DHT22;2105;52.300;9.182;2023-02-28T11:43:24;8.20;1.00
4183;DHT22;2105;52.300;9.182;2023-02-28T11:46:03;8.60;1.00
4183;DHT22;2105;52.300;9.182;2023-02-28T11:48:44;8.80;1.00
4183;DHT22;2105;52.300;9.182;2023-02-28T11:51:19;9.00;1.00
4183;DHT22;2105;52.300;9.182;2023-02-28T11:54:04;8.90;1.00
4183;DHT22;2105;52.300;9.182;2023-02-28T11:56:36;8.70;1.00
4183;DHT22;2105;52.300;9.182;2023-02-28T11:59:22;8.60;1.00
4183;DHT22;2105;52.300;9.182;2023-02-28T12:02:06;8.30;1.00
4183;DHT22;2105;52.300;9.182;2023-02-28T12:04:52;7.90;1.00
4183;DHT22;2105;52.300;9.182;2023-02-28T12:07:28;7.50;1.00
4183;DHT22;2105;52.300;9.182;2023-02-28T12:10:03;7.60;1.00
4183;DHT22;2105;52.300;9.182;2023-02-28T12:12:41;8.20;1.00
4183;DHT22;2105;52.300;9.182;2023-02-28T12:15:28;8.60;1.00
4183;DHT22;2105;52.300;9.182;2023-02-28T12:18:14;8.80;1.00
4183;DHT22;2105;52.300;9.182;2023-02-28T12:20:52;8.50;1.00
4183;DHT22;2105;52.300;9.182;2023-02-28T12:23:43;7.90;1.00
4183;DHT22;2105;52.300;9.182;2023-02-28T12:26:16;7.70;1.00
4183;DHT22;2105;52.300;9.182;2023-02-28T12:28:48;7.90;1.00
4183;DHT22;2105;52.300;9.182;2023-02-28T12:31:19;8.20;1.00
4183;DHT22;2105;52.300;9.182;2023-02-28T12:33:51;8.60;1.00
4183;DHT22;2105;52.300;9.182;2023-02-28T12:36:20;8.50;1.00
4183;DHT22;2105;52.300;9.182;2023-02-28T12:38:53;8.50;1.00
4183;DHT22;2105;52.300;9.182;2023-02-28T12:41:24;8.30;1.00
4183;DHT22;2105;52.300;9.182;2023-02-28T12:44:00;8.20;1.00
4183;DHT22;2105;52.300;9.182;2023-02-28T12:46:32;8.40;1.00
4183;DHT22;2105;52.300;9.182;2023-02-28T12:49:05;8.40;1.00
4183;DHT22;2105;52.300;9.182;2023-02-28T12:51:35;8.60;1.00
4183;DHT22;2105;52.300;9.182;2023-02-28T12:54:10;8.50;1.00
4183;DHT22;2105;52.300;9.182;2023-02-28T12:56:44;8.50;1.00
4183;DHT22;2105;52.300;9.182;2023-02-28T12:59:22;8.50;1.00
4183;DHT22;2105;52.300;9.182;2023-02-28T13:02:09;8.50;1.00
4183;DHT22;2105;52.300;9.182;2023-02-28T13:05:02;8.60;1.00
4183;DHT22;2105;52.300;9.182;2023-02-28T13:07:54;8.70;1.00
4183;DHT22;2105;52.300;9.182;2023-02-28T13:10:38;9.20;1.00
4183;DHT22;2105;52.300;9.182;2023-02-28T13:13:05;9.30;1.00
4183;DHT22;2105;52.300;9.182;2023-02-28T13:15:32;9.30;1.00
4183;DHT22;2105;52.300;9.182;2023-02-28T13:18:03;9.00;1.00
4183;DHT22;2105;52.300;9.182;2023-02-28T13:20:34;8.60;1.00
4183;DHT22;2105;52.300;9.182;2023-02-28T13:23:02;8.60;1.00
4183;DHT22;2105;52.300;9.182;2023-02-28T13:25:52;8.50;1.00
4183;DHT22;2105;52.300;9.182;2023-02-28T13:31:32;8.50;1.00
4183;DHT22;2105;52.300;9.182;2023-02-28T13:34:13;8.60;1.00
4183;DHT22;2105;52.300;9.182;2023-02-28T13:36:40;8.50;1.00
4183;DHT22;2105;52.300;9.182;2023-02-28T13:42:34;8.80;1.00
4183;DHT22;2105;52.300;9.182;2023-02-28T13:45:23;8.50;1.00
4183;DHT22;2105;52.300;9.182;2023-02-28T13:47:56;8.30;1.00
4183;DHT22;2105;52.300;9.182;2023-02-28T13:50:29;8.20;1.00
4183;DHT22;2105;52.300;9.182;2023-02-28T13:53:16;8.10;1.00
4183;DHT22;2105;52.300;9.182;2023-02-28T13:55:52;8.10;1.00
4183;DHT22;2105;52.300;9.182;2023-02-28T13:58:41;8.10;1.00
4183;DHT22;2105;52.300;9.182;2023-02-28T14:01:29;8.00;1.00
4183;DHT22;2105;52.300;9.182;2023-02-28T14:04:14;8.10;1.00
4183;DHT22;2105;52.300;9.182;2023-02-28T14:06:48;8.10;1.00
4183;DHT22;2105;52.300;9.182;2023-02-28T14:09:21;8.40;1.00
4183;DHT22;2105;52.300;9.182;2023-02-28T14:11:50;8.60;1.00
4183;DHT22;2105;52.300;9.182;2023-02-28T14:17:18;8.60;1.00
4183;DHT22;2105;52.300;9.182;2023-02-28T14:19:46;8.60;1.00
4183;DHT22;2105;52.300;9.182;2023-02-28T14:22:32;8.50;1.00
4183;DHT22;2105;52.300;9.182;2023-02-28T14:25:12;8.50;1.00
4183;DHT22;2105;52.300;9.182;2023-02-28T14:27:48;8.30;1.00
4183;DHT22;2105;52.300;9.182;2023-02-28T14:30:40;8.10;1.00
4183;DHT22;2105;52.300;9.182;2023-02-28T14:33:22;8.00;1.00
4183;DHT22;2105;52.300;9.182;2023-02-28T14:36:03;7.70;1.00
4183;DHT22;2105;52.300;9.182;2023-02-28T14:38:32;7.60;1.00
4183;DHT22;2105;52.300;9.182;2023-02-28T14:41:06;7.50;1.00
4183;DHT22;2105;52.300;9.182;2023-02-28T14:43:48;7.50;1.00
4183;DHT22;2105;52.300;9.182;2023-02-28T14:46:17;7.20;1.00
4183;DHT22;2105;52.300;9.182;2023-02-28T14:48:47;7.00;1.00
4183;DHT22;2105;52.300;9.182;2023-02-28T14:51:18;6.80;1.00
4183;DHT22;2105;52.300;9.182;2023-02-28T14:53:49;6.70;1.00
4183;DHT22;2105;52.300;9.182;2023-02-28T14:56:24;6.80;1.00
4183;DHT22;2105;52.300;9.182;2023-02-28T14:58:52;6.70;1.00
4183;DHT22;2105;52.300;9.182;2023-02-28T15:01:20;6.60;1.00
4183;DHT22;2105;52.300;9.182;2023-02-28T15:03:57;6.50;1.00
4183;DHT22;2105;52.300;9.182;2023-02-28T15:06:23;6.50;1.00
4183;DHT22;2105;52.300;9.182;2023-02-28T15:09:13;6.60;1.00
4183;DHT22;2105;52.300;9.182;2023-02-28T15:11:40;6.50;1.00
4183;DHT22;2105;52.300;9.182;2023-02-28T15:14:12;6.40;1.00
4183;DHT22;2105;52.300;9.182;2023-02-28T15:16:42;6.30;1.00
4183;DHT22;2105;52.300;9.182;2023-02-28T15:19:14;6.30;1.00
4183;DHT22;2105;52.300;9.182;2023-02-28T15:21:46;6.30;1.00
4183;DHT22;2105;52.300;9.182;2023-02-28T15:24:16;6.30;1.00
4183;DHT22;2105;52.300;9.182;2023-02-28T15:26:52;6.40;1.00
4183;DHT22;2105;52.300;9.182;2023-02-28T15:29:22;6.30;1.00
4183;DHT22;2105;52.300;9.182;2023-02-28T15:31:51;6.20;1.00
4183;DHT22;2105;52.300;9.182;2023-02-28T15:34:21;6.20;1.00
4183;DHT22;2105;52.300;9.182;2023-02-28T15:36:48;6.20;1.00
4183;DHT22;2105;52.300;9.182;2023-02-28T15:39:19;6.20;1.00
4183;DHT22;2105;52.300;9.182;2023-02-28T15:41:46;6.20;1.00
4183;DHT22;2105;52.300;9.182;2023-02-28T15:44:33;6.30;1.00
4183;DHT22;2105;52.300;9.182;2023-02-28T15:47:02;6.20;1.00
4183;DHT22;2105;52.300;9.182;2023-02-28T15:49:37;6.10;1.00
4183;DHT22;2105;52.300;9.182;2023-02-28T15:52:05;6.10;1.00
4183;DHT22;2105;52.300;9.182;2023-02-28T15:54:33;6.00;1.00
4183;DHT22;2105;52.300;9.182;2023-02-28T15:57:03;6.00;1.00
4183;DHT22;2105;52.300;9.182;2023-02-28T15:59:32;5.80;1.00
4183;DHT22;2105;52.300;9.182;2023-02-28T16:02:13;5.80;1.00
4183;DHT22;2105;52.300;9.182;2023-02-28T16:04:57;5.90;1.00
4183;DHT22;2105;52.300;9.182;2023-02-28T16:07:24;5.80;1.00
4183;DHT22;2105;52.300;9.182;2023-02-28T16:09:51;5.90;1.00
4183;DHT22;2105;52.300;9.182;2023-02-28T16:12:19;5.80;1.00
4183;DHT22;2105;52.300;9.182;2023-02-28T16:14:47;5.80;1.00
4183;DHT22;2105;52.300;9.182;2023-02-28T16:17:20;5.70;1.00
4183;DHT22;2105;52.300;9.182;2023-02-28T16:19:47;5.60;1.00
4183;DHT22;2105;52.300;9.182;2023-02-28T16:22:16;5.50;1.00
4183;DHT22;2105;52.300;9.182;2023-02-28T16:24:42;5.40;1.00
4183;DHT22;2105;52.300;9.182;2023-02-28T16:27:16;5.30;1.00
4183;DHT22;2105;52.300;9.182;2023-02-28T16:29:44;5.20;1.00
4183;DHT22;2105;52.300;9.182;2023-02-28T16:32:13;5.20;1.00
4183;DHT22;2105;52.300;9.182;2023-02-28T16:34:40;5.10;1.00
4183;DHT22;2105;52.300;9.182;2023-02-28T16:37:13;5.10;1.00
4183;DHT22;2105;52.300;9.182;2023-02-28T16:39:43;5.00;1.00
4183;DHT22;2105;52.300;9.182;2023-02-28T16:42:15;4.90;1.00
4183;DHT22;2105;52.300;9.182;2023-02-28T16:44:42;4.80;1.00
4183;DHT22;2105;52.300;9.182;2023-02-28T16:47:10;4.70;1.00
4183;DHT22;2105;52.300;9.182;2023-02-28T16:49:37;4.70;1.00
4183;DHT22;2105;52.300;9.182;2023-02-28T16:52:03;4.50;1.00
4183;DHT22;2105;52.300;9.182;2023-02-28T16:54:31;4.40;1.00
4183;DHT22;2105;52.300;9.182;2023-02-28T16:56:59;4.20;1.00
4183;DHT22;2105;52.300;9.182;2023-02-28T16:59:26;4.00;1.00
4183;DHT22;2105;52.300;9.182;2023-02-28T17:01:54;3.70;1.00
4183;DHT22;2105;52.300;9.182;2023-02-28T17:04:22;3.50;1.00
4183;DHT22;2105;52.300;9.182;2023-02-28T17:06:48;3.20;28.10
4183;DHT22;2105;52.300;9.182;2023-02-28T17:09:17;3.00;99.90
4183;DHT22;2105;52.300;9.182;2023-02-28T17:11:45;3.00;99.90
4183;DHT22;2105;52.300;9.182;2023-02-28T17:14:13;2.80;99.90
4183;DHT22;2105;52.300;9.182;2023-02-28T17:16:41;2.70;99.90